createdAt,value
2019-04-20T00:02:27.475Z,33.85
2019-04-20T00:05:01.202Z,34.16
2019-04-20T00:07:36.383Z,34.16
2019-04-20T00:10:14.955Z,34.14
2019-04-20T00:12:59.376Z,34.14
2019-04-20T00:15:19.613Z,33.33
2019-04-20T00:17:56.157Z,34.45
2019-04-20T00:20:30.629Z,34.08
2019-04-20T00:23:07.864Z,34.57
2019-04-20T00:26:16.182Z,34.57
2019-04-20T00:28:57.399Z,34.05
2019-04-20T00:31:34.042Z,33.33
2019-04-20T00:34:00.701Z,33.33
2019-04-20T00:36:22.231Z,34.34
2019-04-20T00:38:58.270Z,33.69
2019-04-20T00:41:29.713Z,34.61
2019-04-20T00:44:06.832Z,34.01
2019-04-20T00:46:52.135Z,34.49
2019-04-20T00:49:27.568Z,34.61
2019-04-20T00:52:13.122Z,34.62
2019-04-20T00:54:22.385Z,34.62
2019-04-20T00:57:07.896Z,34.32
2019-04-20T00:59:54.218Z,34.40
2019-04-20T01:02:21.043Z,34.33
2019-04-20T01:04:57.946Z,33.28
2019-04-20T01:07:38.576Z,34.31
2019-04-20T01:10:07.333Z,34.12
2019-04-20T01:12:41.016Z,34.15
2019-04-20T01:15:26.856Z,34.57
2019-04-20T01:17:48.037Z,34.57
2019-04-20T01:20:22.628Z,34.40
2019-04-20T01:23:01.890Z,34.26
2019-04-20T01:25:35.159Z,34.81
2019-04-20T01:28:19.288Z,34.28
2019-04-20T01:30:43.182Z,34.82
2019-04-20T01:33:25.170Z,34.82
2019-04-20T01:35:56.685Z,34.46
2019-04-20T01:38:36.909Z,34.46
2019-04-20T01:40:57.177Z,34.65
2019-04-20T01:43:31.165Z,34.38
2019-04-20T01:46:09.318Z,34.53
2019-04-20T01:48:41.309Z,34.40
2019-04-20T01:51:19.630Z,34.47
2019-04-20T01:54:08.278Z,34.47
2019-04-20T01:56:36.764Z,33.96
2019-04-20T01:59:38.535Z,34.43
2019-04-20T02:02:17.755Z,34.94
2019-04-20T02:05:06.057Z,34.94
2019-04-20T02:07:38.378Z,35.09
2019-04-20T02:10:08.319Z,35.10
2019-04-20T02:12:40.855Z,35.10
2019-04-20T02:15:24.184Z,34.78
2019-04-20T02:18:03.618Z,35.04
2019-04-20T02:20:37.621Z,35.04
2019-04-20T02:23:09.471Z,34.75
2019-04-20T02:25:29.029Z,35.03
2019-04-20T02:28:22.824Z,35.03
2019-04-20T02:31:14.883Z,34.85
2019-04-20T02:33:47.316Z,35.17
2019-04-20T02:39:22.141Z,35.04
2019-04-20T02:41:44.685Z,35.04
2019-04-20T02:46:49.266Z,35.17
2019-04-20T02:49:33.687Z,35.15
2019-04-20T02:51:52.736Z,35.19
2019-04-20T02:54:26.133Z,33.71
2019-04-20T02:57:05.630Z,34.42
2019-04-20T03:02:02.993Z,35.40
2019-04-20T03:04:25.707Z,35.40
2019-04-20T03:07:06.769Z,35.42
2019-04-20T03:09:45.915Z,35.24
2019-04-20T03:12:23.635Z,35.25
2019-04-20T03:14:47.360Z,35.25
2019-04-20T03:17:30.044Z,35.40
2019-04-20T03:19:54.958Z,35.62
2019-04-20T03:23:02.389Z,35.72
2019-04-20T03:25:17.913Z,35.72
2019-04-20T03:28:05.353Z,35.73
2019-04-20T03:31:26.828Z,35.47
2019-04-20T03:33:41.398Z,35.46
2019-04-20T03:36:07.482Z,35.31
2019-04-20T03:38:33.585Z,35.31
2019-04-20T03:40:56.445Z,35.45
2019-04-20T03:43:20.084Z,35.92
2019-04-20T03:45:59.478Z,35.92
2019-04-20T03:48:41.292Z,35.88
2019-04-20T03:51:23.921Z,35.88
2019-04-20T03:54:12.193Z,35.88
2019-04-20T03:57:17.298Z,35.78
2019-04-20T04:00:00.463Z,35.87
2019-04-20T04:03:04.717Z,35.77
2019-04-20T04:05:27.414Z,35.97
2019-04-20T04:07:55.882Z,35.96
2019-04-20T04:10:31.633Z,36.03
2019-04-20T04:13:12.432Z,35.96
2019-04-20T04:15:52.849Z,36.03
2019-04-20T04:18:28.069Z,36.07
2019-04-20T04:21:00.098Z,36.07
2019-04-20T04:23:45.927Z,36.07
2019-04-20T04:26:22.307Z,36.26
2019-04-20T04:28:56.338Z,36.26
2019-04-20T04:31:32.324Z,36.06
2019-04-20T04:34:06.266Z,36.37
2019-04-20T04:36:36.062Z,36.31
2019-04-20T04:39:16.677Z,36.31
2019-04-20T04:41:50.973Z,36.07
2019-04-20T04:44:14.616Z,36.06
2019-04-20T04:46:42.382Z,36.27
2019-04-20T04:49:20.780Z,36.21
2019-04-20T04:51:53.514Z,36.20
2019-04-20T04:54:30.469Z,36.20
2019-04-20T04:56:52.564Z,36.19
2019-04-20T04:59:25.715Z,36.32
2019-04-20T05:01:58.810Z,36.32
2019-04-20T05:05:15.917Z,34.94
2019-04-20T05:07:46.390Z,35.10
2019-04-20T05:10:05.564Z,34.14
2019-04-20T05:12:38.783Z,33.32
2019-04-20T05:15:22.756Z,33.01
2019-04-20T05:18:06.190Z,32.66
2019-04-20T05:20:41.663Z,32.71
2019-04-20T05:23:26.935Z,32.12
2019-04-20T05:26:14.175Z,32.45
2019-04-20T05:28:37.162Z,31.83
2019-04-20T05:35:55.641Z,31.53
2019-04-20T05:38:37.743Z,31.69
2019-04-20T05:41:02.109Z,31.64
2019-04-20T05:43:47.072Z,31.45
2019-04-20T05:46:26.164Z,30.64
2019-04-20T05:48:57.604Z,30.12
2019-04-20T05:51:43.254Z,30.01
2019-04-20T05:54:09.832Z,30.24
2019-04-20T05:56:40.877Z,30.03
2019-04-20T05:59:11.610Z,29.51
2019-04-20T06:01:53.287Z,29.46
2019-04-20T06:04:30.048Z,29.09
2019-04-20T06:06:54.897Z,29.09
2019-04-20T06:09:28.673Z,29.29
2019-04-20T06:12:21.005Z,29.29
2019-04-20T06:14:47.046Z,28.72
2019-04-20T06:17:33.331Z,28.72
2019-04-20T06:20:09.087Z,29.16
2019-04-20T06:22:50.238Z,29.19
2019-04-20T06:25:39.090Z,29.19
2019-04-20T06:28:00.946Z,28.64
2019-04-20T06:30:25.237Z,28.80
2019-04-20T06:39:30.893Z,30.13
2019-04-20T06:42:10.921Z,29.65
2019-04-20T06:44:34.069Z,29.89
2019-04-20T06:49:38.198Z,30.76
2019-04-20T06:55:03.389Z,30.98
2019-04-20T06:57:40.552Z,30.95
2019-04-20T07:00:15.537Z,31.96
2019-04-20T07:03:01.897Z,32.39
2019-04-20T07:05:22.520Z,32.93
2019-04-20T07:08:27.720Z,31.51
2019-04-20T07:10:35.848Z,32.84
2019-04-20T07:12:55.321Z,32.92
2019-04-20T07:15:36.410Z,32.94
2019-04-20T07:18:18.649Z,32.84
2019-04-20T07:21:05.337Z,32.96
2019-04-20T07:23:40.728Z,32.66
2019-04-20T07:26:22.321Z,33.32
2019-04-20T07:28:55.720Z,33.25
2019-04-20T07:31:18.958Z,33.68
2019-04-20T07:33:58.049Z,32.60
2019-04-20T07:36:32.422Z,33.45
2019-04-20T07:39:08.960Z,32.51
2019-04-20T07:41:42.023Z,33.14
2019-04-20T07:44:13.145Z,33.81
2019-04-20T07:46:57.824Z,33.31
2019-04-20T07:49:22.461Z,33.71
2019-04-20T07:51:35.539Z,34.01
2019-04-20T07:54:28.294Z,33.55
2019-04-20T07:56:54.885Z,33.30
2019-04-20T07:59:23.177Z,33.18
2019-04-20T08:02:15.735Z,33.96
2019-04-20T08:04:51.263Z,34.13
2019-04-20T08:07:12.443Z,34.13
2019-04-20T08:09:51.449Z,34.03
2019-04-20T08:12:56.884Z,33.79
2019-04-20T08:15:38.072Z,33.83
2019-04-20T08:18:13.666Z,33.99
2019-04-20T08:20:31.434Z,34.22
2019-04-20T08:23:06.395Z,34.08
2019-04-20T08:25:32.762Z,34.06
2019-04-20T08:28:16.451Z,34.09
2019-04-20T08:31:09.087Z,34.15
2019-04-20T08:34:01.716Z,34.44
2019-04-20T08:36:26.934Z,34.44
2019-04-20T08:39:14.634Z,34.69
2019-04-20T08:41:25.033Z,34.67
2019-04-20T08:44:32.365Z,34.67
2019-04-20T08:46:41.738Z,34.11
2019-04-20T08:49:17.167Z,33.96
2019-04-20T08:51:49.790Z,34.63
2019-04-20T08:54:18.088Z,34.10
2019-04-20T08:56:42.415Z,33.90
2019-04-20T08:59:06.742Z,33.15
2019-04-20T09:01:39.454Z,33.10
2019-04-20T09:04:18.604Z,32.95
2019-04-20T09:07:02.346Z,33.28
2019-04-20T09:09:56.482Z,34.42
2019-04-20T09:12:09.129Z,33.33
2019-04-20T09:14:28.302Z,33.68
2019-04-20T09:17:09.419Z,34.15
2019-04-20T09:19:46.931Z,34.26
2019-04-20T09:22:45.723Z,35.32
2019-04-20T09:25:44.445Z,35.14
2019-04-20T09:27:50.789Z,35.18
2019-04-20T09:30:32.020Z,35.18
2019-04-20T09:33:18.224Z,35.19
2019-04-20T09:35:44.453Z,35.65
2019-04-20T09:38:14.529Z,35.71
2019-04-20T09:40:51.017Z,35.94
2019-04-20T09:43:26.049Z,35.32
2019-04-20T09:46:02.123Z,35.32
2019-04-20T09:48:38.739Z,35.61
2019-04-20T09:51:25.803Z,35.88
2019-04-20T09:53:48.869Z,36.68
2019-04-20T09:56:28.107Z,35.82
2019-04-20T10:17:38.550Z,36.55
2019-04-20T10:20:17.633Z,36.55
2019-04-20T10:22:44.914Z,36.38
2019-04-20T10:25:18.209Z,36.38
2019-04-20T10:27:51.608Z,36.34
2019-04-20T10:30:23.459Z,36.40
2019-04-20T10:32:55.872Z,36.31
2019-04-20T10:35:29.666Z,34.94
2019-04-20T10:38:09.618Z,35.47
2019-04-20T10:40:54.115Z,35.94
2019-04-20T10:43:16.368Z,35.86
2019-04-20T10:45:48.925Z,35.86
2019-04-20T10:48:21.422Z,35.35
2019-04-20T10:50:54.806Z,36.00
2019-04-20T10:53:27.965Z,36.00
2019-04-20T10:56:01.260Z,35.17
2019-04-20T10:58:33.901Z,35.83
2019-04-20T11:01:07.267Z,35.77
2019-04-20T11:03:40.711Z,35.72
2019-04-20T11:06:14.383Z,35.72
2019-04-20T11:08:46.874Z,35.84
2019-04-20T11:11:26.148Z,33.58
2019-04-20T11:13:53.181Z,34.43
2019-04-20T11:16:26.391Z,34.39
2019-04-20T11:21:44.107Z,34.82
2019-04-20T11:24:16.391Z,34.03
2019-04-20T11:26:48.263Z,33.48
2019-04-20T11:29:20.060Z,34.81
2019-04-20T11:31:54.761Z,32.83
2019-04-20T11:34:31.405Z,34.62
2019-04-20T11:36:59.257Z,35.85
2019-04-20T11:39:31.073Z,35.59
2019-04-20T11:42:03.676Z,35.45
2019-04-20T11:44:36.521Z,33.52
2019-04-20T11:47:08.493Z,33.29
2019-04-20T11:49:41.603Z,35.84
2019-04-20T11:52:16.370Z,35.84
2019-04-20T11:54:46.794Z,33.79
2019-04-20T11:57:19.590Z,31.26
2019-04-20T11:59:50.852Z,31.44
2019-04-20T12:02:44.288Z,32.15
2019-04-20T12:05:26.215Z,32.87
2019-04-20T12:08:02.957Z,32.96
2019-04-20T12:10:35.018Z,30.59
2019-04-20T12:13:07.917Z,30.51
2019-04-20T12:15:39.836Z,31.22
2019-04-20T12:18:11.686Z,31.79
2019-04-20T12:20:42.931Z,30.46
2019-04-20T12:23:15.924Z,30.11
2019-04-20T12:25:48.033Z,30.75
2019-04-20T12:28:19.922Z,31.31
2019-04-20T12:30:58.417Z,30.21
2019-04-20T12:33:26.461Z,31.66
2019-04-20T12:36:00.369Z,33.37
2019-04-20T12:38:32.986Z,29.26
2019-04-20T12:41:07.763Z,29.26
2019-04-20T12:43:39.334Z,29.76
2019-04-20T12:46:14.922Z,30.04
2019-04-20T12:48:47.452Z,30.83
2019-04-20T12:51:19.671Z,30.83
2019-04-20T12:53:52.846Z,34.73
2019-04-20T12:56:26.441Z,33.01
2019-04-20T12:58:58.269Z,32.16
2019-04-20T13:01:31.560Z,33.61
2019-04-20T13:04:07.464Z,32.01
2019-04-20T13:06:39.234Z,33.39
2019-04-20T13:09:22.871Z,33.51
2019-04-20T13:12:19.396Z,33.60
2019-04-20T13:15:42.498Z,33.62
2019-04-20T13:18:16.982Z,31.36
2019-04-20T13:20:50.122Z,31.36
2019-04-20T13:23:24.777Z,29.69
2019-04-20T13:25:57.329Z,29.69
2019-04-20T13:28:30.744Z,29.59
2019-04-20T13:31:04.001Z,30.11
2019-04-20T13:33:36.969Z,29.99
2019-04-20T13:36:10.374Z,29.99
2019-04-20T13:38:44.102Z,31.44
2019-04-20T13:41:17.857Z,31.51
2019-04-20T13:43:50.253Z,29.16
2019-04-20T13:46:22.980Z,27.73
2019-04-20T13:48:57.193Z,29.77
2019-04-20T13:51:30.831Z,32.76
2019-04-20T13:54:27.646Z,32.88
2019-04-20T13:56:59.645Z,31.41
2019-04-20T13:59:44.117Z,34.05
2019-04-20T14:02:38.571Z,33.78
2019-04-20T14:05:10.873Z,34.49
2019-04-20T14:07:42.737Z,33.66
2019-04-20T14:10:15.449Z,33.13
2019-04-20T14:13:35.268Z,33.68
2019-04-20T14:16:03.066Z,33.68
2019-04-20T14:21:36.278Z,35.05
2019-04-20T14:24:08.988Z,35.99
2019-04-20T14:26:43.754Z,34.28
2019-04-20T14:29:16.907Z,31.28
2019-04-20T14:31:50.024Z,30.98
2019-04-20T14:35:59.100Z,30.36
2019-04-20T14:38:30.782Z,30.36
2019-04-20T14:41:02.227Z,29.92
2019-04-20T14:43:35.236Z,29.48
2019-04-20T14:46:08.520Z,30.56
2019-04-20T14:48:40.662Z,30.79
2019-04-20T14:51:12.408Z,30.89
2019-04-20T14:53:45.364Z,30.40
2019-04-20T14:56:17.729Z,30.68
2019-04-20T14:59:20.730Z,30.68
2019-04-20T15:02:02.793Z,31.69
2019-04-20T15:04:35.317Z,30.84
2019-04-20T15:07:08.659Z,31.21
2019-04-20T15:09:40.695Z,29.46
2019-04-20T15:12:12.958Z,29.28
2019-04-20T15:14:44.977Z,31.24
2019-04-20T15:17:23.566Z,29.70
2019-04-20T15:20:05.553Z,29.71
2019-04-20T15:22:39.655Z,29.71
2019-04-20T15:25:11.693Z,32.08
2019-04-20T15:27:46.045Z,31.07
2019-04-20T15:30:18.319Z,30.65
2019-04-20T15:32:52.179Z,30.19
2019-04-20T15:35:24.785Z,29.16
2019-04-20T15:37:57.372Z,30.83
2019-04-20T15:40:29.505Z,29.41
2019-04-20T15:43:10.260Z,31.84
2019-04-20T15:45:34.917Z,30.48
2019-04-20T15:48:07.850Z,31.95
2019-04-20T15:50:40.042Z,32.77
2019-04-20T15:53:13.505Z,31.65
2019-04-20T15:55:47.390Z,33.83
2019-04-20T15:58:20.535Z,33.83
2019-04-20T16:00:52.830Z,32.76
2019-04-20T16:03:37.222Z,34.99
2019-04-20T16:06:11.489Z,35.10
2019-04-20T16:08:46.351Z,35.31
2019-04-20T16:11:19.334Z,35.31
2019-04-20T16:13:53.885Z,34.35
2019-04-20T16:16:25.652Z,33.77
2019-04-20T16:18:58.754Z,33.73
2019-04-20T16:21:33.880Z,35.38
2019-04-20T16:26:57.694Z,33.02
2019-04-20T16:29:31.409Z,34.28
2019-04-20T16:32:04.722Z,31.67
2019-04-20T16:34:38.291Z,31.69
2019-04-20T16:37:12.534Z,33.24
2019-04-20T16:39:43.798Z,33.22
2019-04-20T16:42:16.451Z,35.19
2019-04-20T16:44:49.391Z,34.57
2019-04-20T16:47:22.048Z,32.88
2019-04-20T16:49:55.125Z,32.88
2019-04-20T16:52:28.826Z,35.30
2019-04-20T16:55:02.142Z,34.85
2019-04-20T16:57:34.820Z,33.53
2019-04-20T17:00:07.546Z,34.79
2019-04-20T17:02:40.326Z,33.83
2019-04-20T17:05:13.530Z,34.73
2019-04-20T17:07:47.019Z,35.05
2019-04-20T17:10:20.430Z,35.05
2019-04-20T17:12:53.662Z,33.08
2019-04-20T17:15:29.650Z,35.34
2019-04-20T17:18:03.511Z,35.31
2019-04-20T17:20:36.817Z,34.93
2019-04-20T17:23:10.736Z,35.13
2019-04-20T17:25:43.872Z,35.20
2019-04-20T17:28:38.603Z,35.27
2019-04-20T17:31:39.926Z,35.66
2019-04-20T17:34:29.991Z,35.72
2019-04-20T17:36:50.594Z,35.82
2019-04-20T17:39:31.057Z,35.56
2019-04-20T17:42:14.694Z,35.81
2019-04-20T17:44:44.971Z,35.84
2019-04-20T17:47:29.103Z,35.61
2019-04-20T17:50:00.688Z,35.59
2019-04-20T17:52:49.650Z,35.79
2019-04-20T17:55:19.700Z,35.73
2019-04-20T17:57:44.247Z,35.73
2019-04-20T18:00:51.227Z,35.89
2019-04-20T18:04:00.463Z,35.71
2019-04-20T18:06:19.973Z,35.76
2019-04-20T18:08:48.379Z,35.75
2019-04-20T18:11:14.977Z,35.72
2019-04-20T18:13:45.005Z,35.65
2019-04-20T18:16:41.877Z,35.46
2019-04-20T18:19:10.016Z,35.46
2019-04-20T18:21:51.673Z,35.68
2019-04-20T18:24:50.739Z,35.40
2019-04-20T18:27:24.837Z,35.36
2019-04-20T18:29:53.388Z,35.36
2019-04-20T18:32:19.793Z,35.57
2019-04-20T18:35:02.627Z,35.62
2019-04-20T18:37:32.729Z,35.52
2019-04-20T18:40:11.111Z,35.52
2019-04-20T18:42:43.773Z,35.90
2019-04-20T18:45:30.852Z,35.90
2019-04-20T18:48:14.631Z,35.90
2019-04-20T18:50:32.148Z,35.90
2019-04-20T18:52:59.960Z,35.72
2019-04-20T18:55:41.640Z,35.83
2019-04-20T18:58:07.482Z,35.69
2019-04-20T19:00:45.930Z,35.55
2019-04-20T19:03:25.221Z,35.70
2019-04-20T19:05:49.634Z,35.84
2019-04-20T19:08:30.314Z,35.69
2019-04-20T19:13:51.144Z,35.87
2019-04-20T19:16:50.581Z,35.73
2019-04-20T19:19:25.763Z,35.64
2019-04-20T19:21:52.120Z,35.66
2019-04-20T19:24:29.106Z,35.68
2019-04-20T19:27:03.561Z,35.84
2019-04-20T19:29:43.525Z,35.89
2019-04-20T19:32:24.091Z,35.91
2019-04-20T19:34:57.040Z,35.90
2019-04-20T19:37:27.440Z,35.81
2019-04-20T19:40:07.762Z,35.68
2019-04-20T19:42:43.796Z,35.83
2019-04-20T19:45:30.168Z,35.44
2019-04-20T19:47:54.731Z,35.90
2019-04-20T19:53:16.423Z,35.63
2019-04-20T19:55:39.673Z,35.88
2019-04-20T19:58:11.155Z,35.84
2019-04-20T20:00:53.224Z,35.22
2019-04-20T20:03:27.898Z,35.83
2019-04-20T20:06:01.546Z,35.94
2019-04-20T20:08:36.378Z,35.87
2019-04-20T20:11:16.884Z,35.49
2019-04-20T20:13:49.583Z,35.71
2019-04-20T20:16:27.186Z,35.92
2019-04-20T20:19:07.437Z,35.73
2019-04-20T20:21:45.754Z,35.73
2019-04-20T20:24:14.403Z,35.98
2019-04-20T20:26:54.572Z,35.93
2019-04-20T20:29:33.201Z,35.94
2019-04-20T20:32:11.687Z,35.96
2019-04-20T20:34:40.493Z,35.98
2019-04-20T20:37:14.271Z,35.10
2019-04-20T20:39:53.853Z,35.59
2019-04-20T20:42:30.650Z,35.88
2019-04-20T20:45:09.307Z,36.02
2019-04-20T20:47:49.022Z,35.08
2019-04-20T20:50:28.452Z,35.84
2019-04-20T20:52:55.522Z,36.03
2019-04-20T20:55:28.828Z,35.88
2019-04-20T20:58:00.678Z,35.88
2019-04-20T21:00:34.514Z,35.53
2019-04-20T21:03:02.723Z,36.02
2019-04-20T21:05:31.906Z,35.60
2019-04-20T21:08:05.800Z,35.50
2019-04-20T21:10:42.389Z,35.87
2019-04-20T21:13:14.268Z,36.36
2019-04-20T21:15:57.563Z,36.18
2019-04-20T21:18:43.554Z,35.71
2019-04-20T21:21:11.713Z,36.27
2019-04-20T21:23:42.840Z,35.90
2019-04-20T21:26:32.040Z,36.18
2019-04-20T21:29:20.448Z,36.18
2019-04-20T21:31:57.480Z,36.19
2019-04-20T21:34:27.344Z,35.74
2019-04-20T21:37:10.701Z,36.12
2019-04-20T21:39:53.896Z,36.12
2019-04-20T21:42:24.800Z,35.83
2019-04-20T21:45:04.592Z,35.83
2019-04-20T21:47:34.153Z,35.68
2019-04-20T21:50:34.192Z,36.13
2019-04-20T21:52:53.526Z,36.13
2019-04-20T21:55:25.970Z,35.98
2019-04-20T21:58:05.273Z,36.23
2019-04-20T22:00:44.585Z,35.90
2019-04-20T22:03:15.469Z,35.60
2019-04-20T22:05:48.606Z,35.93
2019-04-20T22:08:22.194Z,35.55
2019-04-20T22:10:55.507Z,35.55
2019-04-20T22:13:34.453Z,36.08
2019-04-20T22:16:08.248Z,35.77
2019-04-20T22:18:48.170Z,36.31
2019-04-20T22:21:21.235Z,36.22
2019-04-20T22:24:00.542Z,36.17
2019-04-20T22:26:34.383Z,36.17
2019-04-20T22:29:02.838Z,35.92
2019-04-20T22:31:36.046Z,36.18
2019-04-20T22:34:16.323Z,35.92
2019-04-20T22:36:48.090Z,36.43
2019-04-20T22:39:23.575Z,36.46
2019-04-20T22:42:01.186Z,36.42
2019-04-20T22:44:32.406Z,36.34
2019-04-20T22:47:05.480Z,36.34
2019-04-20T22:49:51.501Z,36.35
2019-04-20T22:52:29.380Z,35.86
2019-04-20T22:55:01.471Z,35.87
2019-04-20T22:57:36.388Z,35.87
2019-04-20T23:00:03.414Z,36.15
2019-04-20T23:02:30.237Z,36.46
2019-04-20T23:05:04.792Z,36.36
2019-04-20T23:07:38.823Z,36.36
2019-04-20T23:10:11.350Z,36.58
2019-04-20T23:12:52.484Z,36.25
2019-04-20T23:15:22.499Z,36.28
2019-04-20T23:17:55.918Z,36.49
2019-04-20T23:20:32.664Z,36.49
2019-04-20T23:23:03.061Z,36.07
2019-04-20T23:25:36.461Z,36.07
2019-04-20T23:28:12.321Z,36.41
2019-04-20T23:30:42.821Z,36.07
2019-04-20T23:33:16.091Z,36.41
2019-04-20T23:35:54.648Z,36.08
2019-04-20T23:38:24.697Z,36.10
2019-04-20T23:40:57.694Z,36.64
2019-04-20T23:43:43.130Z,36.64
2019-04-20T23:46:33.302Z,36.30
2019-04-20T23:49:28.053Z,36.26
2019-04-20T23:52:26.978Z,36.33
2019-04-20T23:54:34.011Z,36.76
2019-04-20T23:57:05.980Z,36.69
2019-04-20T23:59:41.850Z,36.69
